Time;durP1;ratioP1;P1;durP2;ratioP2;P2;SDS_P1;SDS_P2;PMS_P1;PMS_P2;Temp;Humidity;BMP_temperature;BMP_pressure;BME280_temperature;BME280_humidity;BME280_pressure;Samples;Min_cycle;Max_cycle;Signal;HPM_P1;HPM_P2
2022/10/31 00:02:31;;;;;;;9.68;3.30;;;;;;;;;;4994825;28;20032;-71
2022/10/31 00:05:16;;;;;;;15.18;3.60;;;;;;;;;;5002715;28;20032;-70
2022/10/31 00:08:01;;;;;;;10.50;4.13;;;;;;;;;;5000070;28;20026;-70
2022/10/31 00:10:46;;;;;;;10.63;3.95;;;;;;;;;;4996338;28;20026;-70
2022/10/31 00:13:31;;;;;;;9.95;3.10;;;;;;;;;;4994769;28;20100;-68
2022/10/31 00:16:18;;;;;;;8.40;3.67;;;;;;;;;;4995031;28;20048;-73
2022/10/31 00:19:04;;;;;;;11.02;3.95;;;;;;;;;;4994906;28;20026;-71
2022/10/31 00:21:51;;;;;;;7.22;2.80;;;;;;;;;;4995745;28;20037;-74
2022/10/31 00:24:36;;;;;;;7.90;3.42;;;;;;;;;;4995394;28;20026;-74
2022/10/31 00:27:21;;;;;;;7.82;3.90;;;;;;;;;;4995645;28;20057;-74
2022/10/31 00:30:07;;;;;;;14.98;3.90;;;;;;;;;;4990691;28;20038;-74
2022/10/31 00:32:52;;;;;;;7.28;2.70;;;;;;;;;;4994434;28;20022;-73
2022/10/31 00:35:37;;;;;;;11.25;3.03;;;;;;;;;;4999517;28;20404;-74
2022/10/31 00:38:22;;;;;;;11.02;4.03;;;;;;;;;;4994235;28;20053;-71
2022/10/31 00:41:08;;;;;;;9.82;3.30;;;;;;;;;;4983521;28;20033;-71
2022/10/31 00:43:53;;;;;;;9.43;3.55;;;;;;;;;;4996977;28;20034;-69
2022/10/31 00:46:38;;;;;;;11.30;3.80;;;;;;;;;;4995564;28;20029;-70
2022/10/31 00:49:24;;;;;;;7.70;3.65;;;;;;;;;;4994470;28;20040;-70
2022/10/31 00:52:09;;;;;;;9.02;3.67;;;;;;;;;;4995340;28;20448;-72
2022/10/31 00:54:54;;;;;;;7.25;3.40;;;;;;;;;;4992285;28;20124;-73
2022/10/31 00:57:39;;;;;;;8.40;3.22;;;;;;;;;;4994177;28;20030;-71
2022/10/31 01:00:24;;;;;;;9.85;3.03;;;;;;;;;;4993816;28;20038;-72
2022/10/31 01:03:10;;;;;;;10.02;2.97;;;;;;;;;;4994365;28;20141;-72
2022/10/31 01:06:06;;;;;;;8.98;3.30;;;;;;;;;;5004695;28;20068;-73
2022/10/31 01:08:51;;;;;;;11.98;3.85;;;;;;;;;;4982802;28;20029;-72
2022/10/31 01:11:36;;;;;;;8.88;3.03;;;;;;;;;;4991656;28;20026;-71
2022/10/31 01:14:21;;;;;;;14.10;4.40;;;;;;;;;;4993744;28;20022;-72
2022/10/31 01:17:07;;;;;;;14.43;4.00;;;;;;;;;;4993906;28;20033;-71
2022/10/31 01:19:52;;;;;;;7.85;3.47;;;;;;;;;;4994562;28;20033;-71
2022/10/31 01:22:38;;;;;;;6.13;3.33;;;;;;;;;;4995324;28;20481;-72
2022/10/31 01:25:23;;;;;;;12.20;3.03;;;;;;;;;;4994260;28;20048;-71
2022/10/31 01:28:08;;;;;;;9.50;3.40;;;;;;;;;;4995699;28;20025;-70
2022/10/31 01:30:53;;;;;;;7.10;2.90;;;;;;;;;;4992674;28;20110;-76
2022/10/31 01:33:38;;;;;;;8.90;3.17;;;;;;;;;;5012616;28;20116;-76
2022/10/31 01:36:24;;;;;;;9.23;3.05;;;;;;;;;;4992451;28;20101;-75
2022/10/31 01:39:11;;;;;;;9.32;3.40;;;;;;;;;;4992757;28;20462;-76
2022/10/31 01:41:56;;;;;;;9.27;3.13;;;;;;;;;;4985934;28;20125;-77
2022/10/31 01:44:41;;;;;;;7.40;3.60;;;;;;;;;;4998974;28;20125;-79
2022/10/31 01:47:32;;;;;;;8.43;3.08;;;;;;;;;;4991281;28;20445;-70
2022/10/31 01:50:29;;;;;;;16.20;4.63;;;;;;;;;;4992750;28;20096;-69
2022/10/31 01:53:15;;;;;;;10.95;3.50;;;;;;;;;;4992024;28;20040;-70
2022/10/31 01:56:00;;;;;;;8.82;3.00;;;;;;;;;;4992175;28;20109;-70
2022/10/31 01:58:46;;;;;;;12.73;3.58;;;;;;;;;;4998973;28;20700;-70
2022/10/31 02:01:31;;;;;;;8.15;2.90;;;;;;;;;;4991442;28;20053;-71
2022/10/31 02:04:17;;;;;;;6.90;3.30;;;;;;;;;;4978198;28;20034;-72
2022/10/31 02:07:09;;;;;;;6.88;3.08;;;;;;;;;;4978146;28;20374;-76
2022/10/31 02:09:54;;;;;;;11.77;3.35;;;;;;;;;;4991956;28;20030;-76
2022/10/31 02:12:40;;;;;;;6.75;3.33;;;;;;;;;;4991003;28;20488;-77
2022/10/31 02:15:26;;;;;;;9.98;2.97;;;;;;;;;;4992495;28;20070;-77
2022/10/31 02:18:11;;;;;;;6.10;3.13;;;;;;;;;;4991267;28;20042;-77
2022/10/31 02:21:01;;;;;;;10.30;2.83;;;;;;;;;;4992310;28;20137;-71
2022/10/31 02:23:46;;;;;;;10.55;4.13;;;;;;;;;;4978133;28;20022;-70
2022/10/31 02:26:34;;;;;;;9.18;3.05;;;;;;;;;;4991709;28;20022;-71
2022/10/31 02:29:25;;;;;;;13.52;3.67;;;;;;;;;;4990808;28;20544;-71
2022/10/31 02:32:19;;;;;;;9.70;3.45;;;;;;;;;;4991688;28;20445;-71
2022/10/31 02:35:21;;;;;;;10.63;3.10;;;;;;;;;;4993869;28;20547;-70
2022/10/31 02:38:06;;;;;;;9.80;3.25;;;;;;;;;;4991658;28;20121;-70
2022/10/31 02:40:51;;;;;;;10.82;3.47;;;;;;;;;;4997512;28;20079;-76
2022/10/31 02:43:45;;;;;;;9.38;3.38;;;;;;;;;;4997145;28;20034;-74
2022/10/31 02:46:33;;;;;;;6.90;2.60;;;;;;;;;;4997636;28;20420;-71
2022/10/31 02:49:25;;;;;;;6.25;2.85;;;;;;;;;;4997076;28;20034;-71
2022/10/31 02:52:27;;;;;;;8.63;3.25;;;;;;;;;;4997665;28;20113;-72
2022/10/31 02:55:32;;;;;;;10.48;3.83;;;;;;;;;;4997277;28;20415;-71
2022/10/31 02:58:20;;;;;;;10.98;3.63;;;;;;;;;;4975841;28;20041;-71
2022/10/31 03:01:09;;;;;;;6.07;2.90;;;;;;;;;;4995695;28;20030;-72
2022/10/31 03:03:57;;;;;;;11.32;3.90;;;;;;;;;;4994452;28;20108;-71
2022/10/31 03:06:45;;;;;;;7.10;3.67;;;;;;;;;;5009669;28;20109;-71
2022/10/31 03:09:53;;;;;;;8.15;3.58;;;;;;;;;;4995097;28;20065;-72
2022/10/31 03:12:42;;;;;;;7.72;3.45;;;;;;;;;;5009765;28;20089;-70
2022/10/31 03:15:30;;;;;;;9.50;2.88;;;;;;;;;;5008453;28;20083;-72
2022/10/31 03:18:21;;;;;;;7.20;2.97;;;;;;;;;;4996220;28;20041;-68
2022/10/31 03:21:14;;;;;;;9.77;2.85;;;;;;;;;;4996408;28;20061;-67
2022/10/31 03:24:00;;;;;;;7.63;3.38;;;;;;;;;;4983582;28;20022;-67
2022/10/31 03:26:51;;;;;;;7.30;2.90;;;;;;;;;;4996018;28;20034;-68
2022/10/31 03:29:38;;;;;;;10.35;4.35;;;;;;;;;;4987337;28;20038;-66
2022/10/31 03:32:28;;;;;;;8.88;3.58;;;;;;;;;;5009531;28;20481;-66
2022/10/31 03:35:16;;;;;;;7.55;3.00;;;;;;;;;;4988937;28;20511;-74
2022/10/31 03:38:02;;;;;;;8.25;3.00;;;;;;;;;;4996241;28;20064;-77
2022/10/31 03:40:49;;;;;;;9.85;3.47;;;;;;;;;;4996152;28;20059;-76
2022/10/31 03:43:37;;;;;;;11.48;4.05;;;;;;;;;;5002280;28;20056;-75
2022/10/31 03:46:23;;;;;;;10.73;3.25;;;;;;;;;;4986731;28;20033;-75
2022/10/31 03:49:09;;;;;;;12.65;3.63;;;;;;;;;;4996565;28;20365;-77
2022/10/31 03:52:04;;;;;;;8.52;3.50;;;;;;;;;;4994936;28;20038;-76
2022/10/31 03:54:55;;;;;;;13.50;3.45;;;;;;;;;;4991969;28;20029;-71
2022/10/31 03:57:44;;;;;;;10.40;3.63;;;;;;;;;;4995582;28;20124;-68
2022/10/31 04:00:31;;;;;;;10.70;3.80;;;;;;;;;;4996333;28;20034;-67
2022/10/31 04:03:22;;;;;;;8.15;3.28;;;;;;;;;;4996235;28;20029;-68
2022/10/31 04:06:09;;;;;;;5.63;2.90;;;;;;;;;;5006241;28;20025;-68
2022/10/31 04:08:56;;;;;;;9.02;3.65;;;;;;;;;;5001063;28;20079;-68
2022/10/31 04:11:45;;;;;;;13.63;3.15;;;;;;;;;;4995057;28;20057;-66
2022/10/31 04:14:35;;;;;;;8.13;3.53;;;;;;;;;;4995459;28;20038;-70
2022/10/31 04:17:22;;;;;;;7.05;2.88;;;;;;;;;;4994359;28;20072;-72
2022/10/31 04:20:07;;;;;;;14.45;4.20;;;;;;;;;;4996045;28;20046;-70
2022/10/31 04:22:52;;;;;;;6.55;3.65;;;;;;;;;;4995585;28;20061;-69
2022/10/31 04:25:38;;;;;;;8.05;3.25;;;;;;;;;;5007862;28;20532;-70
2022/10/31 04:28:23;;;;;;;9.73;4.05;;;;;;;;;;4977537;28;20026;-67
2022/10/31 04:31:10;;;;;;;6.22;3.28;;;;;;;;;;4987143;28;20037;-69
2022/10/31 04:33:55;;;;;;;7.90;3.15;;;;;;;;;;4995238;28;20042;-66
2022/10/31 04:36:40;;;;;;;7.40;3.17;;;;;;;;;;4984432;28;20100;-66
2022/10/31 04:39:26;;;;;;;12.32;5.15;;;;;;;;;;4995294;28;20034;-66
2022/10/31 04:42:11;;;;;;;8.05;2.80;;;;;;;;;;4995022;28;20529;-66
2022/10/31 04:44:56;;;;;;;8.60;3.60;;;;;;;;;;5014346;28;20036;-67
2022/10/31 04:47:41;;;;;;;8.18;2.70;;;;;;;;;;4981926;28;20021;-66
2022/10/31 04:50:26;;;;;;;9.48;3.47;;;;;;;;;;4989830;28;20111;-76
2022/10/31 04:53:12;;;;;;;10.48;4.57;;;;;;;;;;4994832;28;20141;-70
2022/10/31 04:55:58;;;;;;;8.70;3.55;;;;;;;;;;4993640;28;20033;-73
2022/10/31 04:58:44;;;;;;;7.40;3.42;;;;;;;;;;4990385;28;20037;-69
2022/10/31 05:01:29;;;;;;;9.63;3.40;;;;;;;;;;4995279;28;20377;-68
2022/10/31 05:04:14;;;;;;;9.13;4.25;;;;;;;;;;4990645;28;20066;-70
2022/10/31 05:06:59;;;;;;;8.63;3.40;;;;;;;;;;4995281;28;20486;-77
2022/10/31 05:09:45;;;;;;;7.72;3.22;;;;;;;;;;4994606;28;20071;-67
2022/10/31 05:12:30;;;;;;;7.55;3.45;;;;;;;;;;4995345;28;20083;-67
2022/10/31 05:15:16;;;;;;;12.73;5.10;;;;;;;;;;4994779;28;20103;-67
2022/10/31 05:18:01;;;;;;;11.32;3.30;;;;;;;;;;4995123;28;20084;-67
2022/10/31 05:20:46;;;;;;;6.50;3.25;;;;;;;;;;4994325;28;20034;-66
2022/10/31 05:23:32;;;;;;;13.40;3.55;;;;;;;;;;4996266;28;20462;-66
2022/10/31 05:26:17;;;;;;;8.55;3.10;;;;;;;;;;4994711;28;20107;-67
2022/10/31 05:29:02;;;;;;;11.25;2.75;;;;;;;;;;4995421;28;20034;-71
2022/10/31 05:31:47;;;;;;;16.35;9.13;;;;;;;;;;4994847;28;20038;-71
2022/10/31 05:34:32;;;;;;;11.60;5.10;;;;;;;;;;4994003;28;20481;-73
2022/10/31 05:37:18;;;;;;;10.77;3.90;;;;;;;;;;4984155;28;20077;-71
2022/10/31 05:40:04;;;;;;;11.05;6.05;;;;;;;;;;5007734;28;20022;-70
2022/10/31 05:42:53;;;;;;;7.00;3.58;;;;;;;;;;4995061;28;20022;-71
2022/10/31 05:45:38;;;;;;;13.13;3.78;;;;;;;;;;5005108;28;20042;-71
2022/10/31 05:48:23;;;;;;;10.52;2.75;;;;;;;;;;4995141;28;20065;-64
2022/10/31 05:51:08;;;;;;;10.73;4.03;;;;;;;;;;4994832;28;20034;-65
2022/10/31 05:53:54;;;;;;;7.22;3.63;;;;;;;;;;4994742;28;20025;-65
2022/10/31 05:56:39;;;;;;;12.43;3.80;;;;;;;;;;4988401;28;20038;-66
2022/10/31 05:59:24;;;;;;;8.18;3.10;;;;;;;;;;5007189;28;20436;-65
2022/10/31 06:02:09;;;;;;;11.60;3.75;;;;;;;;;;4982974;28;20489;-73
2022/10/31 06:04:54;;;;;;;9.30;3.60;;;;;;;;;;4985951;28;20021;-76
2022/10/31 06:07:40;;;;;;;9.88;3.40;;;;;;;;;;4994784;28;20029;-77
2022/10/31 06:10:25;;;;;;;6.93;3.10;;;;;;;;;;4994816;28;20501;-76
2022/10/31 06:13:11;;;;;;;12.60;4.28;;;;;;;;;;4994425;28;20481;-77
2022/10/31 06:15:56;;;;;;;9.95;3.60;;;;;;;;;;4998043;28;20037;-77
2022/10/31 06:18:41;;;;;;;7.90;3.90;;;;;;;;;;5011273;28;20037;-77
2022/10/31 06:21:26;;;;;;;6.63;3.65;;;;;;;;;;4998135;28;20057;-72
2022/10/31 06:24:11;;;;;;;11.60;4.30;;;;;;;;;;4998186;28;20500;-69
2022/10/31 06:26:57;;;;;;;10.18;3.95;;;;;;;;;;4985264;28;20075;-68
2022/10/31 06:29:42;;;;;;;9.50;4.00;;;;;;;;;;4998391;28;20037;-69
2022/10/31 06:32:27;;;;;;;9.25;3.70;;;;;;;;;;4997439;28;20040;-69
2022/10/31 06:35:12;;;;;;;11.23;3.50;;;;;;;;;;4998002;28;20045;-68
2022/10/31 06:37:58;;;;;;;14.18;3.63;;;;;;;;;;4991172;28;20465;-70
2022/10/31 06:40:43;;;;;;;10.00;3.53;;;;;;;;;;4998207;28;20052;-74
2022/10/31 06:43:28;;;;;;;8.55;4.32;;;;;;;;;;5001516;28;20033;-69
2022/10/31 06:46:13;;;;;;;10.05;4.40;;;;;;;;;;4997577;28;20037;-67
2022/10/31 06:48:59;;;;;;;10.00;3.80;;;;;;;;;;4996450;28;20030;-66
2022/10/31 06:51:47;;;;;;;7.18;3.40;;;;;;;;;;4997641;28;20026;-67
2022/10/31 06:54:32;;;;;;;11.57;4.32;;;;;;;;;;4996416;28;20105;-70
2022/10/31 06:57:17;;;;;;;7.63;3.80;;;;;;;;;;4997997;28;20484;-79
2022/10/31 07:00:02;;;;;;;9.38;3.60;;;;;;;;;;4997709;28;20063;-70
2022/10/31 07:02:58;;;;;;;7.88;3.42;;;;;;;;;;4997532;28;20465;-67
2022/10/31 07:05:43;;;;;;;7.88;3.45;;;;;;;;;;4996776;28;20385;-67
2022/10/31 07:08:28;;;;;;;9.45;4.32;;;;;;;;;;4996322;28;20117;-66
2022/10/31 07:11:14;;;;;;;11.70;4.95;;;;;;;;;;4997150;28;20018;-69
2022/10/31 07:13:59;;;;;;;11.55;3.97;;;;;;;;;;4996277;28;20125;-69
2022/10/31 07:16:47;;;;;;;10.80;4.07;;;;;;;;;;4997230;28;20113;-71
2022/10/31 07:19:33;;;;;;;10.75;4.05;;;;;;;;;;4996680;28;20556;-76
2022/10/31 07:22:18;;;;;;;9.65;4.45;;;;;;;;;;4997330;28;20121;-76
2022/10/31 07:25:03;;;;;;;10.07;4.15;;;;;;;;;;4996323;28;20061;-76
2022/10/31 07:27:49;;;;;;;13.60;3.95;;;;;;;;;;4997239;28;20116;-78
2022/10/31 07:30:34;;;;;;;9.88;4.50;;;;;;;;;;4996829;28;20029;-75
2022/10/31 07:33:19;;;;;;;12.95;4.20;;;;;;;;;;4996931;28;20037;-76
2022/10/31 07:36:05;;;;;;;8.10;4.03;;;;;;;;;;4995574;28;20065;-72
2022/10/31 07:38:50;;;;;;;11.43;5.15;;;;;;;;;;4984458;28;20503;-68
2022/10/31 07:41:35;;;;;;;14.18;5.57;;;;;;;;;;4995423;28;20060;-66
2022/10/31 07:44:20;;;;;;;11.15;4.40;;;;;;;;;;5002486;28;20076;-68
2022/10/31 07:47:06;;;;;;;14.73;3.65;;;;;;;;;;4992599;28;20119;-69
2022/10/31 07:49:51;;;;;;;12.77;4.35;;;;;;;;;;4996732;28;20172;-72
2022/10/31 07:52:36;;;;;;;7.88;3.97;;;;;;;;;;4995274;28;20555;-67
2022/10/31 07:55:21;;;;;;;11.77;4.15;;;;;;;;;;4995651;28;20030;-72
2022/10/31 07:58:08;;;;;;;10.20;3.95;;;;;;;;;;4995670;28;20041;-72
2022/10/31 08:00:53;;;;;;;9.88;3.97;;;;;;;;;;4994362;28;20036;-71
2022/10/31 08:03:38;;;;;;;12.55;3.85;;;;;;;;;;4995304;28;20523;-71
2022/10/31 08:06:23;;;;;;;10.07;3.95;;;;;;;;;;5002475;28;20546;-69
2022/10/31 08:09:09;;;;;;;11.93;3.95;;;;;;;;;;4995312;28;20041;-72
2022/10/31 08:11:54;;;;;;;7.57;3.78;;;;;;;;;;4994772;28;20040;-72
2022/10/31 08:14:39;;;;;;;15.50;4.32;;;;;;;;;;5008799;28;20037;-72
2022/10/31 08:17:24;;;;;;;11.73;4.18;;;;;;;;;;4994069;28;20042;-71
2022/10/31 08:20:10;;;;;;;12.95;4.57;;;;;;;;;;4996560;28;20682;-73
2022/10/31 08:22:59;;;;;;;8.73;4.20;;;;;;;;;;4995735;28;20485;-72
2022/10/31 08:25:46;;;;;;;8.52;4.38;;;;;;;;;;4996624;28;20057;-71
2022/10/31 08:28:32;;;;;;;7.07;3.30;;;;;;;;;;4995775;28;20038;-72
2022/10/31 08:31:17;;;;;;;8.07;3.58;;;;;;;;;;4995431;28;20508;-73
2022/10/31 08:34:02;;;;;;;8.50;3.80;;;;;;;;;;4995691;28;20468;-74
2022/10/31 08:36:47;;;;;;;10.75;4.50;;;;;;;;;;4994253;28;20080;-75
2022/10/31 08:39:32;;;;;;;9.55;4.60;;;;;;;;;;4996043;28;20120;-74
2022/10/31 08:42:17;;;;;;;7.88;4.63;;;;;;;;;;4994779;28;20022;-74
2022/10/31 08:45:03;;;;;;;6.35;3.65;;;;;;;;;;5001034;28;20132;-73
2022/10/31 08:47:48;;;;;;;13.00;4.50;;;;;;;;;;4994649;28;20180;-77
2022/10/31 08:50:35;;;;;;;12.00;4.78;;;;;;;;;;4995497;28;20038;-71
2022/10/31 08:53:20;;;;;;;10.27;3.53;;;;;;;;;;4994172;28;20026;-72
2022/10/31 08:56:05;;;;;;;10.50;3.88;;;;;;;;;;4994709;28;20042;-72
2022/10/31 08:58:52;;;;;;;9.25;4.13;;;;;;;;;;4993968;28;20029;-76
2022/10/31 09:01:37;;;;;;;9.93;4.90;;;;;;;;;;4994580;28;20064;-73
2022/10/31 09:04:22;;;;;;;18.08;5.15;;;;;;;;;;4993705;28;20388;-72
2022/10/31 09:07:07;;;;;;;9.52;4.40;;;;;;;;;;4987637;28;20609;-72
2022/10/31 09:09:53;;;;;;;14.07;5.25;;;;;;;;;;5008113;28;20087;-73
2022/10/31 09:12:38;;;;;;;9.98;5.03;;;;;;;;;;4995185;28;20065;-73
2022/10/31 09:15:23;;;;;;;9.73;4.10;;;;;;;;;;4994741;28;20430;-72
2022/10/31 09:18:09;;;;;;;13.73;4.20;;;;;;;;;;4994868;28;20040;-75
2022/10/31 09:20:57;;;;;;;10.80;5.38;;;;;;;;;;4995493;28;20531;-73
2022/10/31 09:23:42;;;;;;;7.53;4.93;;;;;;;;;;4994670;28;20022;-73
2022/10/31 09:26:27;;;;;;;12.07;4.97;;;;;;;;;;4995319;28;20112;-71
2022/10/31 09:29:12;;;;;;;9.10;4.05;;;;;;;;;;4994705;28;20105;-70
2022/10/31 09:31:58;;;;;;;12.10;4.68;;;;;;;;;;4981672;28;20757;-70
2022/10/31 09:34:43;;;;;;;9.82;5.00;;;;;;;;;;4994278;28;20030;-70
2022/10/31 09:37:28;;;;;;;10.88;4.30;;;;;;;;;;4989161;28;20034;-69
2022/10/31 09:40:13;;;;;;;9.90;4.20;;;;;;;;;;5007682;28;20033;-68
2022/10/31 09:43:20;;;;;;;12.82;4.85;;;;;;;;;;4995958;28;20359;-66
2022/10/31 09:46:15;;;;;;;10.05;4.50;;;;;;;;;;4993934;28;20065;-68
2022/10/31 09:49:16;;;;;;;10.57;4.50;;;;;;;;;;4995910;28;20022;-68
2022/10/31 09:52:04;;;;;;;19.27;5.68;;;;;;;;;;4998212;28;20584;-69
2022/10/31 09:54:54;;;;;;;10.73;5.18;;;;;;;;;;4997928;28;20575;-67
2022/10/31 09:57:41;;;;;;;15.35;5.40;;;;;;;;;;5010973;28;20030;-68
2022/10/31 10:00:26;;;;;;;14.05;5.00;;;;;;;;;;4997724;28;20069;-69
2022/10/31 10:03:11;;;;;;;13.40;5.10;;;;;;;;;;4998624;28;20034;-79
2022/10/31 10:06:15;;;;;;;11.25;5.22;;;;;;;;;;5002593;28;20083;-68
2022/10/31 10:09:01;;;;;;;19.33;6.47;;;;;;;;;;4992710;28;20037;-68
2022/10/31 10:12:05;;;;;;;12.68;5.53;;;;;;;;;;5011834;28;20025;-68
2022/10/31 10:14:50;;;;;;;13.63;5.35;;;;;;;;;;4998322;28;20033;-69
2022/10/31 10:17:54;;;;;;;16.33;4.93;;;;;;;;;;4996090;28;20052;-68
2022/10/31 10:20:46;;;;;;;14.68;5.70;;;;;;;;;;4997156;28;20088;-69
2022/10/31 10:23:47;;;;;;;11.05;5.65;;;;;;;;;;4999764;28;20084;-70
2022/10/31 10:26:37;;;;;;;15.10;6.43;;;;;;;;;;4997237;28;20030;-70
2022/10/31 10:29:29;;;;;;;14.57;6.18;;;;;;;;;;4998423;28;20476;-71
2022/10/31 10:32:19;;;;;;;13.27;7.22;;;;;;;;;;4997833;28;20042;-71
2022/10/31 10:35:20;;;;;;;12.32;6.30;;;;;;;;;;5011236;28;20544;-70
2022/10/31 10:38:13;;;;;;;24.02;7.32;;;;;;;;;;4997581;28;20049;-68
2022/10/31 10:41:00;;;;;;;14.43;6.50;;;;;;;;;;4998060;28;20517;-69
2022/10/31 10:43:48;;;;;;;16.25;5.85;;;;;;;;;;5002353;28;20037;-68
2022/10/31 10:49:47;;;;;;;11.02;5.88;;;;;;;;;;4997930;28;20036;-67
2022/10/31 10:52:46;;;;;;;14.90;6.30;;;;;;;;;;4997226;28;20034;-69
2022/10/31 10:55:44;;;;;;;16.75;6.32;;;;;;;;;;4997590;28;20084;-70
2022/10/31 10:58:29;;;;;;;15.10;6.88;;;;;;;;;;4997169;28;20049;-67
2022/10/31 11:01:15;;;;;;;13.35;6.55;;;;;;;;;;4997330;28;20052;-68
2022/10/31 11:04:02;;;;;;;11.55;6.15;;;;;;;;;;4996595;28;20438;-69
2022/10/31 11:06:56;;;;;;;14.85;6.75;;;;;;;;;;5006218;28;20021;-69
2022/10/31 11:09:41;;;;;;;17.75;7.18;;;;;;;;;;5010298;28;20033;-69
2022/10/31 11:12:33;;;;;;;14.80;6.57;;;;;;;;;;4997226;28;20112;-72
2022/10/31 11:15:23;;;;;;;13.10;6.40;;;;;;;;;;4987251;28;20028;-77
2022/10/31 11:18:17;;;;;;;16.77;7.07;;;;;;;;;;4995899;28;20034;-68
2022/10/31 11:21:04;;;;;;;13.55;5.90;;;;;;;;;;4997299;28;20030;-68
2022/10/31 11:23:49;;;;;;;14.70;6.53;;;;;;;;;;4996387;28;20608;-68
2022/10/31 11:26:35;;;;;;;15.98;6.72;;;;;;;;;;4997172;28;20030;-66
2022/10/31 11:29:21;;;;;;;10.95;5.70;;;;;;;;;;4996767;28;20057;-67
2022/10/31 11:32:15;;;;;;;16.52;6.30;;;;;;;;;;4996783;28;20120;-67
2022/10/31 11:35:02;;;;;;;15.75;6.72;;;;;;;;;;4995924;28;20129;-78
2022/10/31 11:37:49;;;;;;;11.60;6.32;;;;;;;;;;4996315;28;20125;-72
2022/10/31 11:40:34;;;;;;;11.20;5.15;;;;;;;;;;5008691;28;20044;-70
2022/10/31 11:43:19;;;;;;;16.02;6.47;;;;;;;;;;4999488;28;20029;-72
2022/10/31 11:46:09;;;;;;;14.60;6.30;;;;;;;;;;4994969;28;20029;-70
2022/10/31 11:48:54;;;;;;;;;;;;;;;;;;4995923;28;20033;-71
2022/10/31 11:51:39;;;;;;;16.35;7.55;;;;;;;;;;4995265;28;19910;-69
2022/10/31 11:54:29;;;;;;;11.60;5.78;;;;;;;;;;4996099;28;20092;-67
2022/10/31 11:57:25;;;;;;;13.95;6.22;;;;;;;;;;5004923;28;20053;-66
2022/10/31 12:00:23;;;;;;;12.48;5.60;;;;;;;;;;4995172;28;20033;-68
2022/10/31 12:03:23;;;;;;;10.95;5.90;;;;;;;;;;4996402;28;20041;-69
2022/10/31 12:06:17;;;;;;;15.73;5.97;;;;;;;;;;4997685;28;20441;-69
2022/10/31 12:09:14;;;;;;;14.63;5.30;;;;;;;;;;4989813;28;20440;-68
2022/10/31 12:12:12;;;;;;;11.52;6.18;;;;;;;;;;4995475;28;20021;-74
2022/10/31 12:15:00;;;;;;;14.38;5.70;;;;;;;;;;4995863;28;20601;-73
2022/10/31 12:17:45;;;;;;;12.18;6.03;;;;;;;;;;4991647;28;20131;-74
2022/10/31 12:20:49;;;;;;;17.35;5.68;;;;;;;;;;4995358;28;20037;-74
2022/10/31 12:23:40;;;;;;;11.45;5.65;;;;;;;;;;4996518;28;20448;-75
2022/10/31 12:26:40;;;;;;;13.13;7.53;;;;;;;;;;4995676;28;20562;-74
2022/10/31 12:29:41;;;;;;;13.80;5.07;;;;;;;;;;4996107;28;20048;-76
2022/10/31 12:32:32;;;;;;;13.75;6.60;;;;;;;;;;4995101;28;20519;-72
2022/10/31 12:35:23;;;;;;;12.82;5.50;;;;;;;;;;4982278;28;20115;-72
2022/10/31 12:38:24;;;;;;;12.90;5.63;;;;;;;;;;4995155;28;20040;-72
2022/10/31 12:41:10;;;;;;;11.77;6.95;;;;;;;;;;4995699;28;20037;-71
2022/10/31 12:44:14;;;;;;;11.93;5.88;;;;;;;;;;5001201;28;20026;-71
2022/10/31 12:47:05;;;;;;;10.68;5.00;;;;;;;;;;4994622;28;20097;-69
2022/10/31 12:49:50;;;;;;;10.75;4.97;;;;;;;;;;4995776;28;20025;-73
2022/10/31 12:52:36;;;;;;;15.02;6.07;;;;;;;;;;4995157;28;20022;-73
2022/10/31 12:55:32;;;;;;;13.25;5.57;;;;;;;;;;4995217;28;20030;-74
2022/10/31 12:58:21;;;;;;;11.15;5.75;;;;;;;;;;4993597;28;20048;-73
2022/10/31 13:01:15;;;;;;;15.55;6.57;;;;;;;;;;4995012;28;20088;-73
2022/10/31 13:04:17;;;;;;;12.68;6.13;;;;;;;;;;4994376;28;20038;-73
2022/10/31 13:07:10;;;;;;;14.07;6.18;;;;;;;;;;4995359;28;20053;-74
2022/10/31 13:10:01;;;;;;;15.30;6.57;;;;;;;;;;4995441;28;20037;-75
2022/10/31 13:12:47;;;;;;;12.75;6.38;;;;;;;;;;4994738;28;20030;-74
2022/10/31 13:15:34;;;;;;;11.35;6.28;;;;;;;;;;4995579;28;20022;-74
2022/10/31 13:18:26;;;;;;;17.30;7.20;;;;;;;;;;4981560;28;20037;-74
2022/10/31 13:21:23;;;;;;;13.82;6.55;;;;;;;;;;4994979;28;20499;-74
2022/10/31 13:24:12;;;;;;;16.55;7.57;;;;;;;;;;4995586;28;20041;-69
2022/10/31 13:26:59;;;;;;;16.13;6.95;;;;;;;;;;4999949;28;20030;-74
2022/10/31 13:29:58;;;;;;;15.30;5.78;;;;;;;;;;4998382;28;20430;-70
2022/10/31 13:32:46;;;;;;;19.02;6.78;;;;;;;;;;4992307;28;20400;-72
2022/10/31 13:35:36;;;;;;;14.25;6.25;;;;;;;;;;4998811;28;20050;-71
2022/10/31 13:38:24;;;;;;;17.08;5.65;;;;;;;;;;4983014;28;20097;-72
2022/10/31 13:41:22;;;;;;;15.45;6.28;;;;;;;;;;5012150;28;20390;-71
2022/10/31 13:44:17;;;;;;;16.05;6.90;;;;;;;;;;5017343;28;20037;-71
2022/10/31 13:47:02;;;;;;;17.35;7.28;;;;;;;;;;4985354;28;20030;-67
2022/10/31 13:49:47;;;;;;;12.02;6.57;;;;;;;;;;4998879;28;20033;-68
2022/10/31 13:52:33;;;;;;;16.27;6.65;;;;;;;;;;4998533;28;20026;-68
2022/10/31 13:55:54;;;;;;;15.25;7.32;;;;;;;;;;4997708;28;20113;-68
2022/10/31 13:58:42;;;;;;;13.50;6.20;;;;;;;;;;4938701;29;20039;-68
2022/10/31 14:01:29;;;;;;;14.27;7.75;;;;;;;;;;4996229;28;20034;-68
2022/10/31 14:04:15;;;;;;;11.32;6.30;;;;;;;;;;4998610;28;20451;-75
2022/10/31 14:07:15;;;;;;;14.55;6.70;;;;;;;;;;4998084;28;20036;-76
2022/10/31 14:10:19;;;;;;;13.25;6.03;;;;;;;;;;4997753;28;20124;-76
2022/10/31 14:13:08;;;;;;;18.77;6.05;;;;;;;;;;4998525;28;20042;-76
2022/10/31 14:15:55;;;;;;;20.40;6.68;;;;;;;;;;4997807;28;20163;-75
2022/10/31 14:18:43;;;;;;;12.77;6.28;;;;;;;;;;4998426;28;20073;-67
2022/10/31 14:21:30;;;;;;;15.40;6.70;;;;;;;;;;4997956;28;20033;-67
2022/10/31 14:24:24;;;;;;;12.52;6.38;;;;;;;;;;4998299;28;20033;-68
2022/10/31 14:27:19;;;;;;;14.90;6.70;;;;;;;;;;4997950;28;20041;-71
2022/10/31 14:30:14;;;;;;;12.05;6.07;;;;;;;;;;4998037;28;20040;-69
2022/10/31 14:33:18;;;;;;;13.05;5.45;;;;;;;;;;4993836;28;20034;-69
2022/10/31 14:36:18;;;;;;;14.65;5.70;;;;;;;;;;4996299;28;20035;-67
2022/10/31 14:39:07;;;;;;;20.33;7.45;;;;;;;;;;5001113;28;20026;-67
2022/10/31 14:41:52;;;;;;;12.37;6.07;;;;;;;;;;4997465;28;20034;-76
2022/10/31 14:44:43;;;;;;;14.35;6.90;;;;;;;;;;5003163;28;20748;-77
2022/10/31 14:47:28;;;;;;;13.90;6.57;;;;;;;;;;5011320;28;20083;-76
2022/10/31 14:50:21;;;;;;;12.32;5.90;;;;;;;;;;4997884;28;20033;-76
2022/10/31 14:53:13;;;;;;;13.15;6.13;;;;;;;;;;4993244;28;20044;-77
2022/10/31 14:55:59;;;;;;;13.55;5.90;;;;;;;;;;5011188;28;20704;-74
2022/10/31 14:58:45;;;;;;;13.52;6.82;;;;;;;;;;4996571;28;20053;-74
2022/10/31 15:01:32;;;;;;;14.30;6.65;;;;;;;;;;4997849;28;20373;-75
2022/10/31 15:04:22;;;;;;;13.98;6.22;;;;;;;;;;4994258;28;20044;-75
2022/10/31 15:07:13;;;;;;;13.77;7.22;;;;;;;;;;4988802;28;20101;-74
2022/10/31 15:10:00;;;;;;;14.95;6.93;;;;;;;;;;4997464;28;20034;-74
2022/10/31 15:12:45;;;;;;;13.75;6.78;;;;;;;;;;4996118;28;20040;-75
2022/10/31 15:15:32;;;;;;;17.75;6.03;;;;;;;;;;4997533;28;20026;-77
2022/10/31 15:18:20;;;;;;;18.10;6.30;;;;;;;;;;4985396;28;20026;-76
2022/10/31 15:21:07;;;;;;;16.52;7.80;;;;;;;;;;4997328;28;20121;-76
2022/10/31 15:23:53;;;;;;;17.65;7.30;;;;;;;;;;4996793;28;20057;-77
2022/10/31 15:26:40;;;;;;;17.20;6.63;;;;;;;;;;4997142;28;20552;-74
2022/10/31 15:29:26;;;;;;;24.02;7.65;;;;;;;;;;4996259;28;20132;-77
2022/10/31 15:32:20;;;;;;;15.27;7.50;;;;;;;;;;4996655;28;20061;-69
2022/10/31 15:35:08;;;;;;;20.02;8.05;;;;;;;;;;4995037;28;20037;-73
2022/10/31 15:37:54;;;;;;;19.03;8.53;;;;;;;;;;4996263;28;20047;-73
2022/10/31 15:40:50;;;;;;;17.58;9.07;;;;;;;;;;4996212;28;20388;-73
2022/10/31 15:43:36;;;;;;;19.40;8.48;;;;;;;;;;4998319;28;20042;-71
2022/10/31 15:46:22;;;;;;;18.63;8.38;;;;;;;;;;4995781;28;20029;-74
2022/10/31 15:49:19;;;;;;;15.43;7.88;;;;;;;;;;4995384;28;20112;-73
2022/10/31 15:52:24;;;;;;;12.93;6.82;;;;;;;;;;4990998;28;20037;-73
2022/10/31 15:55:09;;;;;;;23.65;7.55;;;;;;;;;;4991932;28;20042;-72
2022/10/31 15:57:56;;;;;;;16.50;6.88;;;;;;;;;;4995550;28;20059;-70
2022/10/31 16:00:41;;;;;;;14.90;6.50;;;;;;;;;;4996355;28;20385;-71
2022/10/31 16:03:28;;;;;;;14.75;6.30;;;;;;;;;;4997012;28;20037;-72
2022/10/31 16:06:20;;;;;;;12.88;7.25;;;;;;;;;;5004787;28;20083;-71
2022/10/31 16:09:20;;;;;;;13.13;6.13;;;;;;;;;;4991372;28;20101;-68
2022/10/31 16:12:05;;;;;;;17.95;7.18;;;;;;;;;;5000622;28;20117;-71
2022/10/31 16:14:53;;;;;;;19.02;6.90;;;;;;;;;;4980515;28;20497;-71
2022/10/31 16:17:40;;;;;;;15.40;6.50;;;;;;;;;;4995031;28;20041;-71
2022/10/31 16:20:27;;;;;;;14.68;6.50;;;;;;;;;;4995077;28;20030;-70
2022/10/31 16:23:16;;;;;;;19.92;7.82;;;;;;;;;;4996576;28;20026;-71
2022/10/31 16:26:05;;;;;;;14.45;7.43;;;;;;;;;;4995621;28;20026;-72
2022/10/31 16:28:52;;;;;;;15.70;7.03;;;;;;;;;;5009702;28;20025;-67
2022/10/31 16:31:39;;;;;;;14.63;6.40;;;;;;;;;;4995166;28;20034;-72
2022/10/31 16:34:24;;;;;;;18.80;6.70;;;;;;;;;;4995486;28;20469;-72
2022/10/31 16:37:09;;;;;;;16.63;6.88;;;;;;;;;;4990541;28;20062;-73
2022/10/31 16:39:54;;;;;;;13.68;6.07;;;;;;;;;;4995783;28;20084;-73
2022/10/31 16:42:40;;;;;;;21.67;7.13;;;;;;;;;;4995144;28;20034;-73